sensor_id;sensor_type;location;lat;lon;timestamp;P1;durP1;ratioP1;P2;durP2;ratioP2
70814;SDS011;58428;49.478;10.986;2022-10-16T00:02:07;2.67;;;1.50;;
70814;SDS011;58428;49.478;10.986;2022-10-16T00:04:33;3.03;;;1.67;;
70814;SDS011;58428;49.478;10.986;2022-10-16T00:06:59;4.13;;;1.60;;
70814;SDS011;58428;49.478;10.986;2022-10-16T00:11:50;2.77;;;1.50;;
70814;SDS011;58428;49.478;10.986;2022-10-16T00:16:41;4.38;;;1.67;;
70814;SDS011;58428;49.478;10.986;2022-10-16T00:19:09;3.45;;;1.50;;
70814;SDS011;58428;49.478;10.986;2022-10-16T00:21:35;5.28;;;1.80;;
70814;SDS011;58428;49.478;10.986;2022-10-16T00:26:28;3.95;;;1.50;;
70814;SDS011;58428;49.478;10.986;2022-10-16T00:28:55;3.70;;;1.63;;
70814;SDS011;58428;49.478;10.986;2022-10-16T00:31:22;3.67;;;1.70;;
70814;SDS011;58428;49.478;10.986;2022-10-16T00:33:48;3.08;;;1.60;;
70814;SDS011;58428;49.478;10.986;2022-10-16T00:36:16;4.82;;;2.00;;
70814;SDS011;58428;49.478;10.986;2022-10-16T00:38:43;3.42;;;1.83;;
70814;SDS011;58428;49.478;10.986;2022-10-16T00:43:43;4.38;;;1.85;;
70814;SDS011;58428;49.478;10.986;2022-10-16T00:49:05;3.70;;;1.67;;
70814;SDS011;58428;49.478;10.986;2022-10-16T00:51:43;2.92;;;1.67;;
70814;SDS011;58428;49.478;10.986;2022-10-16T00:54:19;5.15;;;1.90;;
70814;SDS011;58428;49.478;10.986;2022-10-16T00:56:48;4.75;;;1.90;;
70814;SDS011;58428;49.478;10.986;2022-10-16T00:59:15;4.47;;;2.03;;
70814;SDS011;58428;49.478;10.986;2022-10-16T01:01:44;5.32;;;2.00;;
70814;SDS011;58428;49.478;10.986;2022-10-16T01:06:50;4.20;;;2.13;;
70814;SDS011;58428;49.478;10.986;2022-10-16T01:09:37;5.68;;;2.15;;
70814;SDS011;58428;49.478;10.986;2022-10-16T01:12:28;4.32;;;2.00;;
70814;SDS011;58428;49.478;10.986;2022-10-16T01:15:06;5.63;;;2.50;;
70814;SDS011;58428;49.478;10.986;2022-10-16T01:20:59;5.10;;;2.70;;
70814;SDS011;58428;49.478;10.986;2022-10-16T01:23:34;8.10;;;2.28;;
70814;SDS011;58428;49.478;10.986;2022-10-16T01:28:57;4.10;;;1.92;;
70814;SDS011;58428;49.478;10.986;2022-10-16T01:31:29;4.35;;;2.10;;
70814;SDS011;58428;49.478;10.986;2022-10-16T01:34:19;3.95;;;1.92;;
70814;SDS011;58428;49.478;10.986;2022-10-16T01:36:53;4.13;;;2.40;;
70814;SDS011;58428;49.478;10.986;2022-10-16T01:39:23;7.28;;;2.70;;
70814;SDS011;58428;49.478;10.986;2022-10-16T01:42:02;5.75;;;2.22;;
70814;SDS011;58428;49.478;10.986;2022-10-16T01:44:32;5.00;;;2.30;;
70814;SDS011;58428;49.478;10.986;2022-10-16T01:47:19;5.03;;;2.25;;
70814;SDS011;58428;49.478;10.986;2022-10-16T01:49:49;3.65;;;1.88;;
70814;SDS011;58428;49.478;10.986;2022-10-16T01:52:20;4.85;;;2.10;;
70814;SDS011;58428;49.478;10.986;2022-10-16T01:54:49;5.55;;;1.83;;
70814;SDS011;58428;49.478;10.986;2022-10-16T01:57:19;5.78;;;2.00;;
70814;SDS011;58428;49.478;10.986;2022-10-16T01:59:47;6.13;;;2.22;;
70814;SDS011;58428;49.478;10.986;2022-10-16T02:02:17;4.55;;;1.90;;
70814;SDS011;58428;49.478;10.986;2022-10-16T02:09:42;3.03;;;1.90;;
70814;SDS011;58428;49.478;10.986;2022-10-16T02:14:53;4.72;;;2.20;;
70814;SDS011;58428;49.478;10.986;2022-10-16T02:19:44;4.88;;;1.98;;
70814;SDS011;58428;49.478;10.986;2022-10-16T02:22:16;6.15;;;2.15;;
70814;SDS011;58428;49.478;10.986;2022-10-16T02:29:44;7.00;;;2.40;;
70814;SDS011;58428;49.478;10.986;2022-10-16T02:32:19;5.60;;;1.95;;
70814;SDS011;58428;49.478;10.986;2022-10-16T02:34:48;5.60;;;2.28;;
70814;SDS011;58428;49.478;10.986;2022-10-16T02:37:16;5.97;;;2.30;;
70814;SDS011;58428;49.478;10.986;2022-10-16T02:39:42;4.28;;;2.03;;
70814;SDS011;58428;49.478;10.986;2022-10-16T02:44:37;4.70;;;2.10;;
70814;SDS011;58428;49.478;10.986;2022-10-16T02:47:02;6.07;;;2.60;;
70814;SDS011;58428;49.478;10.986;2022-10-16T02:51:54;6.13;;;2.50;;
70814;SDS011;58428;49.478;10.986;2022-10-16T02:54:22;6.43;;;2.55;;
70814;SDS011;58428;49.478;10.986;2022-10-16T02:59:13;5.50;;;2.13;;
70814;SDS011;58428;49.478;10.986;2022-10-16T03:04:04;4.30;;;2.07;;
70814;SDS011;58428;49.478;10.986;2022-10-16T03:08:55;5.77;;;2.20;;
70814;SDS011;58428;49.478;10.986;2022-10-16T03:13:46;5.07;;;2.10;;
70814;SDS011;58428;49.478;10.986;2022-10-16T03:18:36;5.33;;;2.83;;
70814;SDS011;58428;49.478;10.986;2022-10-16T03:23:27;8.53;;;2.17;;
70814;SDS011;58428;49.478;10.986;2022-10-16T03:25:53;4.10;;;2.15;;
70814;SDS011;58428;49.478;10.986;2022-10-16T03:28:19;3.78;;;2.20;;
70814;SDS011;58428;49.478;10.986;2022-10-16T03:30:44;5.13;;;2.30;;
70814;SDS011;58428;49.478;10.986;2022-10-16T03:33:09;4.38;;;1.95;;
70814;SDS011;58428;49.478;10.986;2022-10-16T03:38:01;4.22;;;2.17;;
70814;SDS011;58428;49.478;10.986;2022-10-16T03:40:28;4.90;;;2.40;;
70814;SDS011;58428;49.478;10.986;2022-10-16T03:42:53;5.40;;;2.03;;
70814;SDS011;58428;49.478;10.986;2022-10-16T03:45:22;4.05;;;2.10;;
70814;SDS011;58428;49.478;10.986;2022-10-16T03:50:13;3.77;;;1.90;;
70814;SDS011;58428;49.478;10.986;2022-10-16T03:52:39;5.72;;;2.03;;
70814;SDS011;58428;49.478;10.986;2022-10-16T03:55:05;4.55;;;2.03;;
70814;SDS011;58428;49.478;10.986;2022-10-16T03:59:58;4.70;;;2.10;;
70814;SDS011;58428;49.478;10.986;2022-10-16T04:02:23;3.95;;;2.00;;
70814;SDS011;58428;49.478;10.986;2022-10-16T04:07:14;4.13;;;2.00;;
70814;SDS011;58428;49.478;10.986;2022-10-16T04:12:05;2.93;;;2.00;;
70814;SDS011;58428;49.478;10.986;2022-10-16T04:14:30;4.43;;;2.20;;
70814;SDS011;58428;49.478;10.986;2022-10-16T04:19:22;4.32;;;2.30;;
70814;SDS011;58428;49.478;10.986;2022-10-16T04:21:49;4.70;;;2.30;;
70814;SDS011;58428;49.478;10.986;2022-10-16T04:24:14;3.75;;;2.15;;
70814;SDS011;58428;49.478;10.986;2022-10-16T04:26:42;4.15;;;2.13;;
70814;SDS011;58428;49.478;10.986;2022-10-16T04:29:08;5.45;;;2.42;;
70814;SDS011;58428;49.478;10.986;2022-10-16T04:31:34;4.63;;;2.20;;
70814;SDS011;58428;49.478;10.986;2022-10-16T04:36:25;3.25;;;1.95;;
70814;SDS011;58428;49.478;10.986;2022-10-16T04:41:15;5.27;;;2.17;;
70814;SDS011;58428;49.478;10.986;2022-10-16T04:46:06;4.68;;;2.30;;
70814;SDS011;58428;49.478;10.986;2022-10-16T04:50:57;5.32;;;2.10;;
70814;SDS011;58428;49.478;10.986;2022-10-16T04:53:24;4.10;;;2.25;;
70814;SDS011;58428;49.478;10.986;2022-10-16T04:58:16;4.68;;;2.10;;
70814;SDS011;58428;49.478;10.986;2022-10-16T05:00:42;3.53;;;2.05;;
70814;SDS011;58428;49.478;10.986;2022-10-16T05:03:08;3.50;;;2.20;;
70814;SDS011;58428;49.478;10.986;2022-10-16T05:05:34;6.38;;;2.10;;
70814;SDS011;58428;49.478;10.986;2022-10-16T05:08:02;6.45;;;2.80;;
70814;SDS011;58428;49.478;10.986;2022-10-16T05:12:53;3.47;;;2.10;;
70814;SDS011;58428;49.478;10.986;2022-10-16T05:15:18;5.35;;;2.17;;
70814;SDS011;58428;49.478;10.986;2022-10-16T05:17:44;7.32;;;2.22;;
70814;SDS011;58428;49.478;10.986;2022-10-16T05:20:11;3.50;;;1.92;;
70814;SDS011;58428;49.478;10.986;2022-10-16T05:22:37;3.85;;;2.20;;
70814;SDS011;58428;49.478;10.986;2022-10-16T05:25:03;3.90;;;2.20;;
70814;SDS011;58428;49.478;10.986;2022-10-16T05:29:54;3.70;;;2.20;;
70814;SDS011;58428;49.478;10.986;2022-10-16T05:32:19;4.03;;;2.15;;
70814;SDS011;58428;49.478;10.986;2022-10-16T05:34:46;3.75;;;1.90;;
70814;SDS011;58428;49.478;10.986;2022-10-16T05:37:11;3.25;;;2.13;;
70814;SDS011;58428;49.478;10.986;2022-10-16T05:39:40;5.03;;;2.50;;
70814;SDS011;58428;49.478;10.986;2022-10-16T05:42:06;5.03;;;2.40;;
70814;SDS011;58428;49.478;10.986;2022-10-16T05:44:33;5.90;;;2.40;;
70814;SDS011;58428;49.478;10.986;2022-10-16T05:46:58;4.82;;;2.47;;
70814;SDS011;58428;49.478;10.986;2022-10-16T05:51:51;4.60;;;2.20;;
70814;SDS011;58428;49.478;10.986;2022-10-16T05:54:16;4.90;;;2.30;;
70814;SDS011;58428;49.478;10.986;2022-10-16T05:56:43;5.35;;;2.25;;
70814;SDS011;58428;49.478;10.986;2022-10-16T05:59:10;5.05;;;2.53;;
70814;SDS011;58428;49.478;10.986;2022-10-16T06:01:36;6.35;;;2.30;;
70814;SDS011;58428;49.478;10.986;2022-10-16T06:04:02;4.68;;;2.20;;
70814;SDS011;58428;49.478;10.986;2022-10-16T06:08:56;7.00;;;2.72;;
70814;SDS011;58428;49.478;10.986;2022-10-16T06:11:23;4.35;;;2.20;;
70814;SDS011;58428;49.478;10.986;2022-10-16T06:13:55;4.28;;;2.25;;
70814;SDS011;58428;49.478;10.986;2022-10-16T06:16:23;4.03;;;2.15;;
70814;SDS011;58428;49.478;10.986;2022-10-16T06:18:50;7.97;;;2.55;;
70814;SDS011;58428;49.478;10.986;2022-10-16T06:21:17;6.70;;;2.47;;
70814;SDS011;58428;49.478;10.986;2022-10-16T06:23:44;6.28;;;2.63;;
70814;SDS011;58428;49.478;10.986;2022-10-16T06:26:15;6.53;;;2.70;;
70814;SDS011;58428;49.478;10.986;2022-10-16T06:28:42;5.70;;;2.78;;
70814;SDS011;58428;49.478;10.986;2022-10-16T06:33:34;4.45;;;2.28;;
70814;SDS011;58428;49.478;10.986;2022-10-16T06:36:01;4.10;;;2.33;;
70814;SDS011;58428;49.478;10.986;2022-10-16T06:38:30;4.50;;;2.20;;
70814;SDS011;58428;49.478;10.986;2022-10-16T06:40:57;4.68;;;2.30;;
70814;SDS011;58428;49.478;10.986;2022-10-16T06:43:24;4.60;;;2.30;;
70814;SDS011;58428;49.478;10.986;2022-10-16T06:48:20;5.20;;;2.47;;
70814;SDS011;58428;49.478;10.986;2022-10-16T06:53:30;5.72;;;2.40;;
70814;SDS011;58428;49.478;10.986;2022-10-16T06:55:58;6.55;;;2.53;;
70814;SDS011;58428;49.478;10.986;2022-10-16T06:58:33;6.50;;;2.65;;
70814;SDS011;58428;49.478;10.986;2022-10-16T07:03:24;4.83;;;2.43;;
70814;SDS011;58428;49.478;10.986;2022-10-16T07:08:15;4.43;;;2.20;;
70814;SDS011;58428;49.478;10.986;2022-10-16T07:13:08;9.07;;;4.37;;
70814;SDS011;58428;49.478;10.986;2022-10-16T07:15:38;4.03;;;2.35;;
70814;SDS011;58428;49.478;10.986;2022-10-16T07:20:28;4.30;;;2.50;;
70814;SDS011;58428;49.478;10.986;2022-10-16T07:25:19;4.47;;;2.13;;
70814;SDS011;58428;49.478;10.986;2022-10-16T07:30:10;5.63;;;2.67;;
70814;SDS011;58428;49.478;10.986;2022-10-16T07:32:38;5.32;;;2.35;;
70814;SDS011;58428;49.478;10.986;2022-10-16T07:37:29;4.05;;;2.20;;
70814;SDS011;58428;49.478;10.986;2022-10-16T07:42:20;6.03;;;2.92;;
70814;SDS011;58428;49.478;10.986;2022-10-16T07:47:11;6.13;;;2.43;;
70814;SDS011;58428;49.478;10.986;2022-10-16T07:52:03;6.05;;;2.28;;
70814;SDS011;58428;49.478;10.986;2022-10-16T07:56:54;8.87;;;2.20;;
70814;SDS011;58428;49.478;10.986;2022-10-16T08:01:45;6.05;;;2.40;;
70814;SDS011;58428;49.478;10.986;2022-10-16T08:04:11;4.22;;;2.00;;
70814;SDS011;58428;49.478;10.986;2022-10-16T08:09:03;5.57;;;2.25;;
70814;SDS011;58428;49.478;10.986;2022-10-16T08:11:28;4.15;;;2.40;;
70814;SDS011;58428;49.478;10.986;2022-10-16T08:16:19;5.57;;;2.70;;
70814;SDS011;58428;49.478;10.986;2022-10-16T08:18:45;5.47;;;2.60;;
70814;SDS011;58428;49.478;10.986;2022-10-16T08:21:12;5.18;;;2.60;;
70814;SDS011;58428;49.478;10.986;2022-10-16T08:23:43;4.13;;;2.45;;
70814;SDS011;58428;49.478;10.986;2022-10-16T08:26:12;4.72;;;2.10;;
70814;SDS011;58428;49.478;10.986;2022-10-16T08:28:38;5.10;;;2.40;;
70814;SDS011;58428;49.478;10.986;2022-10-16T08:31:11;6.50;;;2.38;;
70814;SDS011;58428;49.478;10.986;2022-10-16T08:33:39;4.32;;;2.20;;
70814;SDS011;58428;49.478;10.986;2022-10-16T08:36:06;6.43;;;2.60;;
70814;SDS011;58428;49.478;10.986;2022-10-16T08:38:34;5.03;;;2.20;;
70814;SDS011;58428;49.478;10.986;2022-10-16T08:48:46;4.18;;;2.20;;
70814;SDS011;58428;49.478;10.986;2022-10-16T08:51:18;3.65;;;2.10;;
70814;SDS011;58428;49.478;10.986;2022-10-16T08:54:01;6.22;;;2.30;;
70814;SDS011;58428;49.478;10.986;2022-10-16T08:56:29;3.58;;;2.03;;
70814;SDS011;58428;49.478;10.986;2022-10-16T08:58:54;3.95;;;1.88;;
70814;SDS011;58428;49.478;10.986;2022-10-16T09:01:22;6.68;;;2.60;;
70814;SDS011;58428;49.478;10.986;2022-10-16T09:09:31;5.55;;;2.42;;
70814;SDS011;58428;49.478;10.986;2022-10-16T09:12:15;3.65;;;2.15;;
70814;SDS011;58428;49.478;10.986;2022-10-16T09:14:56;4.70;;;2.42;;
70814;SDS011;58428;49.478;10.986;2022-10-16T09:17:30;6.78;;;2.47;;
70814;SDS011;58428;49.478;10.986;2022-10-16T09:23:14;5.55;;;2.30;;
70814;SDS011;58428;49.478;10.986;2022-10-16T09:25:46;5.35;;;2.38;;
70814;SDS011;58428;49.478;10.986;2022-10-16T09:28:14;5.75;;;2.45;;
70814;SDS011;58428;49.478;10.986;2022-10-16T09:30:41;5.13;;;2.20;;
70814;SDS011;58428;49.478;10.986;2022-10-16T09:33:07;7.88;;;2.22;;
70814;SDS011;58428;49.478;10.986;2022-10-16T09:35:36;5.78;;;2.70;;
70814;SDS011;58428;49.478;10.986;2022-10-16T09:38:02;5.65;;;2.58;;
70814;SDS011;58428;49.478;10.986;2022-10-16T09:40:35;5.90;;;2.58;;
70814;SDS011;58428;49.478;10.986;2022-10-16T09:45:30;5.28;;;2.30;;
70814;SDS011;58428;49.478;10.986;2022-10-16T09:47:56;5.32;;;2.38;;
70814;SDS011;58428;49.478;10.986;2022-10-16T09:50:28;5.10;;;2.63;;
70814;SDS011;58428;49.478;10.986;2022-10-16T09:53:03;4.35;;;2.22;;
70814;SDS011;58428;49.478;10.986;2022-10-16T09:55:30;4.63;;;2.03;;
70814;SDS011;58428;49.478;10.986;2022-10-16T09:57:57;5.80;;;2.40;;
70814;SDS011;58428;49.478;10.986;2022-10-16T10:00:23;4.88;;;2.20;;
70814;SDS011;58428;49.478;10.986;2022-10-16T10:02:49;6.50;;;2.80;;
70814;SDS011;58428;49.478;10.986;2022-10-16T10:05:20;5.22;;;2.75;;
70814;SDS011;58428;49.478;10.986;2022-10-16T10:10:20;5.13;;;2.60;;
70814;SDS011;58428;49.478;10.986;2022-10-16T10:12:47;6.22;;;2.60;;
70814;SDS011;58428;49.478;10.986;2022-10-16T10:15:16;8.02;;;2.50;;
70814;SDS011;58428;49.478;10.986;2022-10-16T10:17:52;4.85;;;2.50;;
70814;SDS011;58428;49.478;10.986;2022-10-16T10:20:29;6.78;;;3.33;;
70814;SDS011;58428;49.478;10.986;2022-10-16T10:22:59;7.00;;;2.90;;
70814;SDS011;58428;49.478;10.986;2022-10-16T10:26:26;7.30;;;2.40;;
70814;SDS011;58428;49.478;10.986;2022-10-16T10:28:50;3.53;;;2.20;;
70814;SDS011;58428;49.478;10.986;2022-10-16T10:40:00;4.20;;;2.50;;
70814;SDS011;58428;49.478;10.986;2022-10-16T10:43:04;4.35;;;2.30;;
70814;SDS011;58428;49.478;10.986;2022-10-16T10:51:21;5.72;;;2.10;;
70814;SDS011;58428;49.478;10.986;2022-10-16T10:56:50;6.30;;;3.25;;
70814;SDS011;58428;49.478;10.986;2022-10-16T11:00:01;7.03;;;2.67;;
70814;SDS011;58428;49.478;10.986;2022-10-16T11:06:05;5.80;;;2.50;;
70814;SDS011;58428;49.478;10.986;2022-10-16T11:08:36;5.10;;;2.30;;
70814;SDS011;58428;49.478;10.986;2022-10-16T11:11:20;4.70;;;2.30;;
70814;SDS011;58428;49.478;10.986;2022-10-16T11:13:54;4.38;;;2.28;;
70814;SDS011;58428;49.478;10.986;2022-10-16T11:18:56;3.72;;;2.22;;
70814;SDS011;58428;49.478;10.986;2022-10-16T11:21:27;2.65;;;1.60;;
70814;SDS011;58428;49.478;10.986;2022-10-16T11:24:20;5.80;;;1.92;;
70814;SDS011;58428;49.478;10.986;2022-10-16T11:26:48;8.40;;;3.45;;
70814;SDS011;58428;49.478;10.986;2022-10-16T11:29:22;3.92;;;2.03;;
70814;SDS011;58428;49.478;10.986;2022-10-16T11:31:53;4.85;;;1.83;;
70814;SDS011;58428;49.478;10.986;2022-10-16T11:34:31;3.72;;;1.85;;
70814;SDS011;58428;49.478;10.986;2022-10-16T11:37:43;4.05;;;1.80;;
70814;SDS011;58428;49.478;10.986;2022-10-16T11:42:56;3.53;;;1.77;;
70814;SDS011;58428;49.478;10.986;2022-10-16T11:45:41;5.32;;;1.83;;
70814;SDS011;58428;49.478;10.986;2022-10-16T11:51:11;4.88;;;1.90;;
70814;SDS011;58428;49.478;10.986;2022-10-16T11:56:22;3.42;;;1.90;;
70814;SDS011;58428;49.478;10.986;2022-10-16T11:59:26;3.75;;;1.83;;
70814;SDS011;58428;49.478;10.986;2022-10-16T12:04:46;5.10;;;2.30;;
70814;SDS011;58428;49.478;10.986;2022-10-16T12:07:18;3.53;;;1.60;;
70814;SDS011;58428;49.478;10.986;2022-10-16T12:09:49;2.92;;;1.70;;
70814;SDS011;58428;49.478;10.986;2022-10-16T12:12:37;4.03;;;2.08;;
70814;SDS011;58428;49.478;10.986;2022-10-16T12:15:24;6.38;;;2.20;;
70814;SDS011;58428;49.478;10.986;2022-10-16T12:17:53;2.90;;;1.90;;
70814;SDS011;58428;49.478;10.986;2022-10-16T12:20:20;4.53;;;1.80;;
70814;SDS011;58428;49.478;10.986;2022-10-16T12:22:54;4.68;;;1.90;;
70814;SDS011;58428;49.478;10.986;2022-10-16T12:25:25;2.53;;;1.70;;
70814;SDS011;58428;49.478;10.986;2022-10-16T12:27:59;3.53;;;1.80;;
70814;SDS011;58428;49.478;10.986;2022-10-16T12:30:31;4.25;;;1.95;;
70814;SDS011;58428;49.478;10.986;2022-10-16T12:35:54;3.03;;;1.80;;
70814;SDS011;58428;49.478;10.986;2022-10-16T12:38:35;3.05;;;1.70;;
70814;SDS011;58428;49.478;10.986;2022-10-16T12:41:07;3.70;;;1.63;;
70814;SDS011;58428;49.478;10.986;2022-10-16T12:48:40;4.18;;;1.60;;
70814;SDS011;58428;49.478;10.986;2022-10-16T12:51:52;4.10;;;1.70;;
70814;SDS011;58428;49.478;10.986;2022-10-16T12:54:13;3.42;;;1.50;;
70814;SDS011;58428;49.478;10.986;2022-10-16T12:56:57;3.00;;;1.50;;
70814;SDS011;58428;49.478;10.986;2022-10-16T13:05:57;3.13;;;1.65;;
70814;SDS011;58428;49.478;10.986;2022-10-16T13:08:35;4.53;;;1.70;;
70814;SDS011;58428;49.478;10.986;2022-10-16T13:21:44;2.85;;;1.70;;
70814;SDS011;58428;49.478;10.986;2022-10-16T13:30:29;2.83;;;1.58;;
70814;SDS011;58428;49.478;10.986;2022-10-16T13:36:03;3.45;;;1.60;;
70814;SDS011;58428;49.478;10.986;2022-10-16T13:38:30;2.80;;;1.80;;
70814;SDS011;58428;49.478;10.986;2022-10-16T13:41:26;6.75;;;3.40;;
70814;SDS011;58428;49.478;10.986;2022-10-16T13:43:52;8.52;;;5.10;;
70814;SDS011;58428;49.478;10.986;2022-10-16T13:46:24;6.20;;;2.70;;
70814;SDS011;58428;49.478;10.986;2022-10-16T13:49:01;3.33;;;1.80;;
70814;SDS011;58428;49.478;10.986;2022-10-16T13:51:58;3.00;;;1.80;;
70814;SDS011;58428;49.478;10.986;2022-10-16T13:54:25;2.95;;;1.52;;
70814;SDS011;58428;49.478;10.986;2022-10-16T13:56:53;4.45;;;2.00;;
70814;SDS011;58428;49.478;10.986;2022-10-16T14:02:20;3.03;;;1.55;;
70814;SDS011;58428;49.478;10.986;2022-10-16T14:04:51;2.33;;;1.40;;
70814;SDS011;58428;49.478;10.986;2022-10-16T14:07:20;2.50;;;1.42;;
70814;SDS011;58428;49.478;10.986;2022-10-16T14:10:01;3.65;;;1.52;;
70814;SDS011;58428;49.478;10.986;2022-10-16T14:13:02;3.65;;;1.38;;
70814;SDS011;58428;49.478;10.986;2022-10-16T14:15:33;12.27;;;5.15;;
70814;SDS011;58428;49.478;10.986;2022-10-16T14:18:01;13.73;;;6.90;;
70814;SDS011;58428;49.478;10.986;2022-10-16T14:20:29;29.20;;;19.67;;
70814;SDS011;58428;49.478;10.986;2022-10-16T14:23:16;7.63;;;4.68;;
70814;SDS011;58428;49.478;10.986;2022-10-16T14:25:45;5.63;;;2.80;;
70814;SDS011;58428;49.478;10.986;2022-10-16T14:28:18;5.38;;;2.75;;
70814;SDS011;58428;49.478;10.986;2022-10-16T14:30:50;5.90;;;3.30;;
70814;SDS011;58428;49.478;10.986;2022-10-16T14:35:56;4.10;;;1.83;;
70814;SDS011;58428;49.478;10.986;2022-10-16T14:40:51;4.13;;;1.70;;
70814;SDS011;58428;49.478;10.986;2022-10-16T14:43:21;2.92;;;1.80;;
70814;SDS011;58428;49.478;10.986;2022-10-16T14:45:56;3.75;;;2.03;;
70814;SDS011;58428;49.478;10.986;2022-10-16T14:48:23;7.00;;;3.03;;
70814;SDS011;58428;49.478;10.986;2022-10-16T14:50:49;5.40;;;2.42;;
70814;SDS011;58428;49.478;10.986;2022-10-16T14:53:15;4.68;;;2.50;;
70814;SDS011;58428;49.478;10.986;2022-10-16T14:55:41;5.90;;;2.65;;
70814;SDS011;58428;49.478;10.986;2022-10-16T14:58:20;5.38;;;2.65;;
70814;SDS011;58428;49.478;10.986;2022-10-16T15:00:48;6.03;;;2.40;;
70814;SDS011;58428;49.478;10.986;2022-10-16T15:03:14;6.45;;;2.60;;
70814;SDS011;58428;49.478;10.986;2022-10-16T15:05:40;7.25;;;2.83;;
70814;SDS011;58428;49.478;10.986;2022-10-16T15:08:06;5.63;;;2.47;;
70814;SDS011;58428;49.478;10.986;2022-10-16T15:10:32;7.10;;;2.72;;
70814;SDS011;58428;49.478;10.986;2022-10-16T15:13:03;6.75;;;3.50;;
70814;SDS011;58428;49.478;10.986;2022-10-16T15:15:32;4.70;;;2.70;;
70814;SDS011;58428;49.478;10.986;2022-10-16T15:18:07;15.85;;;8.13;;
70814;SDS011;58428;49.478;10.986;2022-10-16T15:20:33;7.90;;;3.40;;
70814;SDS011;58428;49.478;10.986;2022-10-16T15:23:01;6.88;;;3.97;;
70814;SDS011;58428;49.478;10.986;2022-10-16T15:25:34;7.43;;;4.13;;
70814;SDS011;58428;49.478;10.986;2022-10-16T15:28:00;20.77;;;15.35;;
70814;SDS011;58428;49.478;10.986;2022-10-16T15:30:26;12.57;;;7.30;;
70814;SDS011;58428;49.478;10.986;2022-10-16T15:32:54;8.75;;;5.60;;
70814;SDS011;58428;49.478;10.986;2022-10-16T15:35:19;7.70;;;3.90;;
70814;SDS011;58428;49.478;10.986;2022-10-16T15:37:46;4.65;;;2.97;;
70814;SDS011;58428;49.478;10.986;2022-10-16T15:40:13;6.55;;;3.03;;
70814;SDS011;58428;49.478;10.986;2022-10-16T15:42:40;5.13;;;2.70;;
70814;SDS011;58428;49.478;10.986;2022-10-16T15:45:06;6.53;;;2.95;;
70814;SDS011;58428;49.478;10.986;2022-10-16T15:47:33;4.82;;;2.25;;
70814;SDS011;58428;49.478;10.986;2022-10-16T15:49:59;6.20;;;2.90;;
70814;SDS011;58428;49.478;10.986;2022-10-16T15:52:24;6.28;;;3.17;;
70814;SDS011;58428;49.478;10.986;2022-10-16T15:54:51;6.15;;;3.60;;
70814;SDS011;58428;49.478;10.986;2022-10-16T15:57:16;20.30;;;14.30;;
70814;SDS011;58428;49.478;10.986;2022-10-16T15:59:42;8.10;;;4.38;;
70814;SDS011;58428;49.478;10.986;2022-10-16T16:02:08;7.07;;;4.32;;
70814;SDS011;58428;49.478;10.986;2022-10-16T16:04:34;6.75;;;3.90;;
70814;SDS011;58428;49.478;10.986;2022-10-16T16:07:00;9.50;;;5.10;;
70814;SDS011;58428;49.478;10.986;2022-10-16T16:09:26;9.18;;;5.80;;
70814;SDS011;58428;49.478;10.986;2022-10-16T16:11:54;13.20;;;8.07;;
70814;SDS011;58428;49.478;10.986;2022-10-16T16:14:20;12.38;;;6.55;;
70814;SDS011;58428;49.478;10.986;2022-10-16T16:16:46;11.23;;;5.68;;
70814;SDS011;58428;49.478;10.986;2022-10-16T16:19:12;11.27;;;7.70;;
70814;SDS011;58428;49.478;10.986;2022-10-16T16:21:38;9.15;;;5.95;;
70814;SDS011;58428;49.478;10.986;2022-10-16T16:24:03;39.15;;;26.15;;
70814;SDS011;58428;49.478;10.986;2022-10-16T16:26:36;13.20;;;8.70;;
70814;SDS011;58428;49.478;10.986;2022-10-16T16:29:04;11.52;;;6.28;;
70814;SDS011;58428;49.478;10.986;2022-10-16T16:31:31;10.00;;;5.63;;
70814;SDS011;58428;49.478;10.986;2022-10-16T16:33:57;9.80;;;5.43;;
70814;SDS011;58428;49.478;10.986;2022-10-16T16:36:23;9.60;;;6.38;;
70814;SDS011;58428;49.478;10.986;2022-10-16T16:38:50;12.48;;;6.10;;
70814;SDS011;58428;49.478;10.986;2022-10-16T16:41:22;12.70;;;7.20;;
70814;SDS011;58428;49.478;10.986;2022-10-16T16:43:51;12.50;;;8.23;;
70814;SDS011;58428;49.478;10.986;2022-10-16T16:46:17;11.32;;;6.05;;
70814;SDS011;58428;49.478;10.986;2022-10-16T16:48:44;10.15;;;5.30;;
70814;SDS011;58428;49.478;10.986;2022-10-16T16:51:12;11.55;;;5.85;;
70814;SDS011;58428;49.478;10.986;2022-10-16T16:53:48;8.93;;;5.40;;
70814;SDS011;58428;49.478;10.986;2022-10-16T16:56:20;9.82;;;5.95;;
70814;SDS011;58428;49.478;10.986;2022-10-16T16:58:50;12.45;;;5.10;;
70814;SDS011;58428;49.478;10.986;2022-10-16T17:01:17;16.55;;;11.13;;
70814;SDS011;58428;49.478;10.986;2022-10-16T17:03:43;9.98;;;6.22;;
70814;SDS011;58428;49.478;10.986;2022-10-16T17:06:10;11.45;;;6.75;;
70814;SDS011;58428;49.478;10.986;2022-10-16T17:08:37;10.50;;;6.55;;
70814;SDS011;58428;49.478;10.986;2022-10-16T17:11:04;8.95;;;5.85;;
70814;SDS011;58428;49.478;10.986;2022-10-16T17:13:32;10.90;;;5.95;;
70814;SDS011;58428;49.478;10.986;2022-10-16T17:16:02;9.20;;;5.57;;
70814;SDS011;58428;49.478;10.986;2022-10-16T17:18:29;7.85;;;4.65;;
70814;SDS011;58428;49.478;10.986;2022-10-16T17:20:54;6.78;;;4.00;;
70814;SDS011;58428;49.478;10.986;2022-10-16T17:23:24;9.85;;;6.13;;
70814;SDS011;58428;49.478;10.986;2022-10-16T17:25:49;11.30;;;6.53;;
70814;SDS011;58428;49.478;10.986;2022-10-16T17:28:15;11.07;;;6.25;;
70814;SDS011;58428;49.478;10.986;2022-10-16T17:30:48;14.68;;;8.65;;
70814;SDS011;58428;49.478;10.986;2022-10-16T17:33:13;16.50;;;8.27;;
70814;SDS011;58428;49.478;10.986;2022-10-16T17:35:41;14.07;;;9.10;;
70814;SDS011;58428;49.478;10.986;2022-10-16T17:38:09;13.45;;;8.98;;
70814;SDS011;58428;49.478;10.986;2022-10-16T17:40:39;13.43;;;8.52;;
70814;SDS011;58428;49.478;10.986;2022-10-16T17:43:06;14.77;;;8.25;;
70814;SDS011;58428;49.478;10.986;2022-10-16T17:45:35;13.23;;;7.13;;
70814;SDS011;58428;49.478;10.986;2022-10-16T17:48:01;13.93;;;7.15;;
70814;SDS011;58428;49.478;10.986;2022-10-16T17:50:28;13.15;;;7.30;;
70814;SDS011;58428;49.478;10.986;2022-10-16T17:52:54;13.57;;;7.82;;
70814;SDS011;58428;49.478;10.986;2022-10-16T17:55:23;12.73;;;7.20;;
70814;SDS011;58428;49.478;10.986;2022-10-16T17:57:48;12.85;;;7.00;;
70814;SDS011;58428;49.478;10.986;2022-10-16T18:00:13;11.65;;;5.85;;
70814;SDS011;58428;49.478;10.986;2022-10-16T18:02:39;10.60;;;5.43;;
70814;SDS011;58428;49.478;10.986;2022-10-16T18:05:07;10.55;;;5.65;;
70814;SDS011;58428;49.478;10.986;2022-10-16T18:07:33;13.32;;;7.72;;
70814;SDS011;58428;49.478;10.986;2022-10-16T18:09:58;12.02;;;7.57;;
70814;SDS011;58428;49.478;10.986;2022-10-16T18:12:26;12.63;;;6.50;;
70814;SDS011;58428;49.478;10.986;2022-10-16T18:14:51;27.45;;;18.73;;
70814;SDS011;58428;49.478;10.986;2022-10-16T18:17:22;44.60;;;29.77;;
70814;SDS011;58428;49.478;10.986;2022-10-16T18:19:49;13.40;;;8.98;;
70814;SDS011;58428;49.478;10.986;2022-10-16T18:22:14;11.88;;;7.22;;
70814;SDS011;58428;49.478;10.986;2022-10-16T18:24:40;11.48;;;6.38;;
70814;SDS011;58428;49.478;10.986;2022-10-16T18:27:09;12.00;;;6.75;;
70814;SDS011;58428;49.478;10.986;2022-10-16T18:29:34;9.07;;;5.28;;
70814;SDS011;58428;49.478;10.986;2022-10-16T18:32:03;9.48;;;6.03;;
70814;SDS011;58428;49.478;10.986;2022-10-16T18:34:29;12.90;;;6.63;;
70814;SDS011;58428;49.478;10.986;2022-10-16T18:36:54;12.18;;;6.50;;
70814;SDS011;58428;49.478;10.986;2022-10-16T18:39:22;10.70;;;6.00;;
70814;SDS011;58428;49.478;10.986;2022-10-16T18:41:48;8.55;;;5.38;;